Time;durP1;ratioP1;P1;durP2;ratioP2;P2;SDS_P1;SDS_P2;PMS_P1;PMS_P2;Temp;Humidity;BMP_temperature;BMP_pressure;BME280_temperature;BME280_humidity;BME280_pressure;Samples;Min_cycle;Max_cycle;Signal;HPM_P1;HPM_P2
2023/07/09 00:00:51;;;;;;;8.13;7.32;;;24.00;55.60;;;;;;5048751;28;20041;-70
2023/07/09 00:03:18;;;;;;;9.50;7.30;;;24.00;55.80;;;;;;5052482;28;20033;-69
2023/07/09 00:05:46;;;;;;;9.35;8.00;;;23.90;56.10;;;;;;5052487;28;20045;-69
2023/07/09 00:08:27;;;;;;;8.45;7.53;;;23.90;56.20;;;;;;5052824;28;20111;-69
2023/07/09 00:10:54;;;;;;;9.60;7.47;;;23.80;56.20;;;;;;5062268;28;20373;-69
2023/07/09 00:13:20;;;;;;;9.85;7.82;;;23.70;56.30;;;;;;5052425;28;20056;-69
2023/07/09 00:15:47;;;;;;;8.10;6.97;;;23.70;56.20;;;;;;5052472;28;20132;-69
2023/07/09 00:18:12;;;;;;;9.63;8.07;;;23.60;56.20;;;;;;5049448;28;20070;-69
2023/07/09 00:20:38;;;;;;;10.68;8.35;;;23.60;56.20;;;;;;5035939;28;20139;-69
2023/07/09 00:23:04;;;;;;;11.65;7.85;;;23.50;56.20;;;;;;5036110;28;20500;-69
2023/07/09 00:25:30;;;;;;;8.38;7.47;;;23.60;56.30;;;;;;5052280;28;20045;-69
2023/07/09 00:27:56;;;;;;;11.90;8.50;;;23.50;56.60;;;;;;5044803;28;20040;-67
2023/07/09 00:30:23;;;;;;;9.48;7.50;;;23.50;56.20;;;;;;5052696;28;20067;-67
2023/07/09 00:32:52;;;;;;;9.18;7.88;;;23.50;56.30;;;;;;5036004;28;20083;-68
2023/07/09 00:35:19;;;;;;;9.73;8.23;;;23.50;56.30;;;;;;5051591;28;20484;-68
2023/07/09 00:37:45;;;;;;;9.50;7.65;;;23.50;56.30;;;;;;5052424;28;20064;-67
2023/07/09 00:40:23;;;;;;;10.00;8.30;;;23.40;56.30;;;;;;5045945;28;20369;-67
2023/07/09 00:42:53;;;;;;;10.18;7.88;;;23.40;56.40;;;;;;5052171;28;20083;-68
2023/07/09 00:45:25;;;;;;;9.95;7.35;;;23.40;56.60;;;;;;5052226;28;20071;-67
2023/07/09 00:48:00;;;;;;;9.98;8.48;;;23.40;56.60;;;;;;5052097;28;20040;-67
2023/07/09 00:50:49;;;;;;;8.60;7.30;;;23.40;56.60;;;;;;5051815;28;20045;-67
2023/07/09 00:53:22;;;;;;;9.05;7.85;;;23.40;56.70;;;;;;5052307;28;20110;-67
2023/07/09 00:55:58;;;;;;;10.40;8.13;;;23.30;56.70;;;;;;5051648;28;20041;-67
2023/07/09 00:58:26;;;;;;;9.35;7.75;;;23.30;56.80;;;;;;5051865;28;20033;-68
2023/07/09 01:01:00;;;;;;;11.00;7.90;;;23.30;57.00;;;;;;5018997;28;20040;-67
2023/07/09 01:03:40;;;;;;;10.95;8.73;;;23.30;57.40;;;;;;5035288;28;20082;-67
2023/07/09 01:06:06;;;;;;;10.95;8.27;;;23.30;57.30;;;;;;5051685;28;21577;-67
2023/07/09 01:08:35;;;;;;;10.20;8.73;;;23.20;57.30;;;;;;5051696;28;20500;-67
2023/07/09 01:11:01;;;;;;;9.45;8.45;;;23.10;57.30;;;;;;5034987;28;20037;-67
2023/07/09 01:13:28;;;;;;;9.23;7.70;;;23.10;57.30;;;;;;5052950;28;20044;-67
2023/07/09 01:15:55;;;;;;;11.02;8.65;;;23.10;57.40;;;;;;5051380;28;20048;-67
2023/07/09 01:18:22;;;;;;;12.88;9.18;;;23.00;57.60;;;;;;5051527;28;20056;-67
2023/07/09 01:20:48;;;;;;;9.55;8.55;;;22.90;57.70;;;;;;5034550;28;20053;-67
2023/07/09 01:23:14;;;;;;;9.85;8.73;;;22.90;58.00;;;;;;5051620;28;20040;-67
2023/07/09 01:25:46;;;;;;;9.38;8.00;;;22.80;58.00;;;;;;5051371;28;20051;-67
2023/07/09 01:28:12;;;;;;;10.35;8.55;;;22.80;58.00;;;;;;5051162;28;20615;-68
2023/07/09 01:30:41;;;;;;;10.43;8.23;;;22.70;58.00;;;;;;5051440;28;20037;-67
2023/07/09 01:33:09;;;;;;;10.27;8.15;;;22.60;58.00;;;;;;5051635;28;20049;-67
2023/07/09 01:35:40;;;;;;;11.40;9.02;;;22.60;58.10;;;;;;5051352;28;20051;-67
2023/07/09 01:38:07;;;;;;;12.80;8.38;;;22.50;58.20;;;;;;5051288;28;20503;-67
2023/07/09 01:40:33;;;;;;;9.93;8.35;;;22.50;58.30;;;;;;5051150;28;20037;-67
2023/07/09 01:43:00;;;;;;;11.00;8.75;;;22.50;58.30;;;;;;5051515;28;20124;-68
2023/07/09 01:45:26;;;;;;;10.82;7.70;;;22.40;58.40;;;;;;5051702;28;20076;-68
2023/07/09 01:47:53;;;;;;;9.90;8.90;;;22.40;58.40;;;;;;5050337;28;20052;-67
2023/07/09 01:50:19;;;;;;;13.48;9.90;;;22.40;58.60;;;;;;5051108;28;20080;-67
2023/07/09 01:52:46;;;;;;;10.82;8.90;;;22.40;58.70;;;;;;5051416;28;20080;-67
2023/07/09 01:55:16;;;;;;;11.27;9.57;;;22.40;58.70;;;;;;5051013;28;20029;-67
2023/07/09 01:57:43;;;;;;;10.35;9.23;;;22.30;58.70;;;;;;5050926;28;20041;-68
2023/07/09 02:00:13;;;;;;;10.35;8.90;;;22.30;58.70;;;;;;5051250;28;20079;-69
2023/07/09 02:02:42;;;;;;;11.75;9.38;;;22.30;58.70;;;;;;5051288;28;20384;-69
2023/07/09 02:05:09;;;;;;;10.02;8.63;;;22.20;58.70;;;;;;5051146;28;20044;-69
2023/07/09 02:07:35;;;;;;;10.68;9.23;;;22.20;58.80;;;;;;5050636;28;20071;-69
2023/07/09 02:10:01;;;;;;;10.57;8.93;;;22.20;58.90;;;;;;5051240;28;20029;-69
2023/07/09 02:12:27;;;;;;;10.93;9.30;;;22.20;59.10;;;;;;5051948;28;20398;-69
2023/07/09 02:14:52;;;;;;;11.20;8.82;;;22.20;59.40;;;;;;5050765;28;20041;-69
2023/07/09 02:17:18;;;;;;;10.40;8.63;;;22.20;59.30;;;;;;5051002;28;20037;-69
2023/07/09 02:19:44;;;;;;;10.05;8.00;;;22.10;59.30;;;;;;5051415;28;20033;-69
2023/07/09 02:22:11;;;;;;;13.43;10.48;;;22.10;59.30;;;;;;5054184;28;20174;-69
2023/07/09 02:24:37;;;;;;;10.82;9.60;;;22.10;59.50;;;;;;5053793;28;20051;-69
2023/07/09 02:27:06;;;;;;;10.90;9.00;;;22.00;59.60;;;;;;5054247;28;20036;-69
2023/07/09 02:29:33;;;;;;;10.07;8.98;;;22.00;59.60;;;;;;5053739;28;20059;-69
2023/07/09 02:32:00;;;;;;;12.05;9.65;;;22.00;59.60;;;;;;5054276;28;20063;-69
2023/07/09 02:34:27;;;;;;;10.02;8.93;;;21.90;59.60;;;;;;5070404;28;20489;-69
2023/07/09 02:36:53;;;;;;;12.48;9.63;;;21.90;59.80;;;;;;5053829;28;20036;-69
2023/07/09 02:39:19;;;;;;;11.10;9.77;;;21.90;59.80;;;;;;5053931;28;20033;-69
2023/07/09 02:41:45;;;;;;;9.88;8.88;;;21.90;60.10;;;;;;5053981;28;20051;-69
2023/07/09 02:44:10;;;;;;;9.98;8.40;;;21.80;60.00;;;;;;5054290;28;20040;-69
2023/07/09 02:46:36;;;;;;;11.70;9.65;;;21.80;60.00;;;;;;5053779;28;20047;-69
2023/07/09 02:49:04;;;;;;;12.95;9.55;;;21.80;60.00;;;;;;5037719;28;20476;-69
2023/07/09 02:51:31;;;;;;;11.18;9.98;;;21.80;60.10;;;;;;5053924;28;20074;-69
2023/07/09 02:53:58;;;;;;;11.00;9.32;;;21.70;60.10;;;;;;5037487;28;20346;-69
2023/07/09 02:56:24;;;;;;;12.70;10.70;;;21.70;60.30;;;;;;5053657;28;20492;-69
2023/07/09 02:58:50;;;;;;;12.20;8.95;;;21.70;60.50;;;;;;5055425;28;20033;-69
2023/07/09 03:01:16;;;;;;;14.23;9.52;;;21.60;60.60;;;;;;5057309;28;20040;-69
2023/07/09 03:03:42;;;;;;;10.23;9.20;;;21.60;60.50;;;;;;5057181;28;20119;-69
2023/07/09 03:06:08;;;;;;;11.90;9.38;;;21.60;60.60;;;;;;5057723;28;20120;-69
2023/07/09 03:08:34;;;;;;;17.35;10.85;;;21.60;60.70;;;;;;5040744;28;20043;-69
2023/07/09 03:11:08;;;;;;;12.13;8.80;;;21.50;60.90;;;;;;5057348;28;20055;-69
2023/07/09 03:13:34;;;;;;;12.45;10.18;;;21.50;61.00;;;;;;5056912;28;20036;-69
2023/07/09 03:16:00;;;;;;;11.75;9.95;;;21.50;61.30;;;;;;5057299;28;20127;-69
2023/07/09 03:18:25;;;;;;;11.23;10.02;;;21.50;61.30;;;;;;5040495;28;20048;-69
2023/07/09 03:20:51;;;;;;;11.98;10.77;;;21.40;61.30;;;;;;5056816;28;20048;-69
2023/07/09 03:23:17;;;;;;;10.32;8.50;;;21.40;61.70;;;;;;5057360;28;20411;-69
2023/07/09 03:25:43;;;;;;;12.13;9.90;;;21.30;61.70;;;;;;5057055;28;20029;-69
2023/07/09 03:28:12;;;;;;;11.18;9.35;;;21.30;61.80;;;;;;5056724;28;20047;-69
2023/07/09 03:30:46;;;;;;;11.07;9.98;;;21.30;61.90;;;;;;5056895;28;20475;-69
2023/07/09 03:33:13;;;;;;;13.10;10.20;;;21.20;61.90;;;;;;5057115;28;20094;-69
2023/07/09 03:35:39;;;;;;;11.73;9.43;;;21.20;62.00;;;;;;5056160;28;20047;-69
2023/07/09 03:38:06;;;;;;;13.07;9.90;;;21.20;62.20;;;;;;5056767;28;20070;-69
2023/07/09 03:40:31;;;;;;;10.90;9.77;;;21.10;62.10;;;;;;5056648;28;20037;-69
2023/07/09 03:42:57;;;;;;;10.57;9.10;;;21.10;62.20;;;;;;5056819;28;20055;-69
2023/07/09 03:45:23;;;;;;;11.02;9.73;;;21.00;62.10;;;;;;5056688;28;20502;-69
2023/07/09 03:47:49;;;;;;;12.38;9.88;;;21.00;62.30;;;;;;5056429;28;20043;-69
2023/07/09 03:50:15;;;;;;;10.93;9.05;;;21.00;61.80;;;;;;5056477;28;20045;-69
2023/07/09 03:52:41;;;;;;;11.93;9.55;;;20.90;61.60;;;;;;5056450;28;20041;-69
2023/07/09 03:55:08;;;;;;;11.20;9.48;;;20.90;61.80;;;;;;5056442;28;20075;-69
2023/07/09 03:57:34;;;;;;;12.95;10.00;;;20.80;61.80;;;;;;5055257;28;20121;-69
2023/07/09 04:00:02;;;;;;;10.98;9.70;;;20.80;62.00;;;;;;5054887;28;20127;-69
2023/07/09 04:02:28;;;;;;;11.48;10.25;;;20.80;61.70;;;;;;5056504;28;20044;-69
2023/07/09 04:04:53;;;;;;;12.20;9.80;;;20.70;62.00;;;;;;5039821;28;20055;-69
2023/07/09 04:07:19;;;;;;;11.18;9.68;;;20.70;62.20;;;;;;5039640;28;20040;-69
2023/07/09 04:09:45;;;;;;;12.63;9.63;;;20.70;62.50;;;;;;5055696;28;20139;-69
2023/07/09 04:12:11;;;;;;;11.63;9.73;;;20.70;62.40;;;;;;5055801;28;20047;-69
2023/07/09 04:14:37;;;;;;;11.07;9.02;;;20.70;62.20;;;;;;5055849;28;20040;-69
2023/07/09 04:17:03;;;;;;;14.32;9.45;;;20.70;62.30;;;;;;5055765;28;20537;-69
2023/07/09 04:19:29;;;;;;;11.38;9.40;;;20.70;62.30;;;;;;5056354;28;20398;-69
2023/07/09 04:21:55;;;;;;;11.38;9.10;;;20.70;62.60;;;;;;5052411;28;20127;-69
2023/07/09 04:24:21;;;;;;;11.05;9.15;;;20.70;62.60;;;;;;5035935;28;20098;-69
2023/07/09 04:26:47;;;;;;;11.30;9.40;;;20.70;62.80;;;;;;5052505;28;20041;-69
2023/07/09 04:29:13;;;;;;;13.63;9.00;;;20.70;62.90;;;;;;5035815;28;20094;-69
2023/07/09 04:31:40;;;;;;;11.93;8.75;;;20.70;62.70;;;;;;5052550;28;20095;-69
2023/07/09 04:34:07;;;;;;;13.90;10.05;;;20.80;62.80;;;;;;5052221;28;20202;-69
2023/07/09 04:36:33;;;;;;;14.88;9.88;;;20.70;62.70;;;;;;5052549;28;20362;-69
2023/07/09 04:38:59;;;;;;;10.90;9.30;;;20.80;62.80;;;;;;5052284;28;20119;-69
2023/07/09 04:41:25;;;;;;;12.07;9.20;;;20.80;63.10;;;;;;5052391;28;20211;-69
2023/07/09 04:43:51;;;;;;;12.15;9.18;;;20.80;63.20;;;;;;5035562;28;20509;-69
2023/07/09 04:46:17;;;;;;;11.43;9.60;;;20.80;63.60;;;;;;5036111;28;20080;-69
2023/07/09 04:48:42;;;;;;;12.13;8.65;;;20.90;64.00;;;;;;5052459;28;20033;-69
2023/07/09 04:51:08;;;;;;;12.18;9.55;;;20.90;64.20;;;;;;5052449;28;20044;-69
2023/07/09 04:53:34;;;;;;;10.73;9.55;;;21.00;64.40;;;;;;5052645;28;20040;-69
2023/07/09 04:56:02;;;;;;;12.00;9.52;;;21.00;64.00;;;;;;5034992;28;20183;-69
2023/07/09 04:58:29;;;;;;;12.60;9.95;;;21.00;63.80;;;;;;5061429;28;20040;-69
2023/07/09 05:00:58;;;;;;;12.55;9.73;;;21.10;63.70;;;;;;5051547;28;20499;-69
2023/07/09 05:03:24;;;;;;;15.27;10.00;;;21.20;63.60;;;;;;5044352;28;20037;-69
2023/07/09 05:05:50;;;;;;;15.30;9.77;;;21.20;63.40;;;;;;5051833;28;20072;-69
2023/07/09 05:08:17;;;;;;;13.02;10.10;;;21.20;63.40;;;;;;5051403;28;20112;-69
2023/07/09 05:10:49;;;;;;;14.13;10.15;;;21.30;63.50;;;;;;5035411;28;20044;-69
2023/07/09 05:13:16;;;;;;;11.70;10.32;;;21.30;63.50;;;;;;5035101;28;20098;-69
2023/07/09 05:15:44;;;;;;;11.75;9.73;;;21.30;63.60;;;;;;5051652;28;20044;-69
2023/07/09 05:18:12;;;;;;;10.57;9.32;;;21.40;63.50;;;;;;5051416;28;20052;-69
2023/07/09 05:20:38;;;;;;;10.98;8.95;;;21.40;63.40;;;;;;5051457;28;20056;-69
2023/07/09 05:23:03;;;;;;;11.63;9.02;;;21.40;63.30;;;;;;5034636;28;20033;-69
2023/07/09 05:25:29;;;;;;;10.65;9.48;;;21.50;63.60;;;;;;5051387;28;20041;-69
2023/07/09 05:27:55;;;;;;;11.05;9.88;;;21.50;63.60;;;;;;5051480;28;20068;-69
2023/07/09 05:30:21;;;;;;;13.85;10.35;;;21.50;63.60;;;;;;5034589;28;20484;-69
2023/07/09 05:32:47;;;;;;;12.57;9.80;;;21.60;63.70;;;;;;5051446;28;20047;-69
2023/07/09 05:35:13;;;;;;;12.38;10.13;;;21.60;63.60;;;;;;5050959;28;20071;-69
2023/07/09 05:37:39;;;;;;;11.45;9.57;;;21.70;63.70;;;;;;5051446;28;20078;-69
2023/07/09 05:40:06;;;;;;;12.60;10.68;;;21.70;63.80;;;;;;5051064;28;20041;-69
2023/07/09 05:42:32;;;;;;;11.55;10.23;;;21.70;63.70;;;;;;5050975;28;20053;-69
2023/07/09 05:44:58;;;;;;;12.40;10.20;;;21.80;63.60;;;;;;5051000;28;20033;-69
2023/07/09 05:47:24;;;;;;;12.90;9.93;;;21.80;63.50;;;;;;5034619;28;20098;-69
2023/07/09 05:49:50;;;;;;;13.65;10.02;;;21.90;63.60;;;;;;5051108;28;20045;-69
2023/07/09 05:52:22;;;;;;;15.13;11.82;;;21.90;63.60;;;;;;5051032;28;20051;-69
2023/07/09 05:54:52;;;;;;;14.82;10.73;;;22.00;63.40;;;;;;5045296;28;20029;-69
2023/07/09 05:57:18;;;;;;;14.15;11.50;;;22.00;63.10;;;;;;5050894;28;20117;-69
2023/07/09 05:59:44;;;;;;;12.32;11.00;;;22.10;62.90;;;;;;5034573;28;20107;-69
2023/07/09 06:02:20;;;;;;;13.63;10.95;;;22.20;62.70;;;;;;5050902;28;20048;-69
2023/07/09 06:04:48;;;;;;;13.75;11.82;;;22.30;63.00;;;;;;5044631;28;20044;-69
2023/07/09 06:07:14;;;;;;;12.80;11.15;;;22.40;62.90;;;;;;5050643;28;20051;-69
2023/07/09 06:09:40;;;;;;;16.08;10.52;;;22.50;63.00;;;;;;5051091;28;20041;-69
2023/07/09 06:12:06;;;;;;;11.45;10.25;;;22.50;63.30;;;;;;5034520;28;20116;-69
2023/07/09 06:14:33;;;;;;;12.65;11.27;;;22.70;63.70;;;;;;5050900;28;20076;-69
2023/07/09 06:17:00;;;;;;;13.18;11.77;;;22.90;63.10;;;;;;5034172;28;20084;-69
2023/07/09 06:19:26;;;;;;;12.05;10.43;;;23.20;62.50;;;;;;5050875;28;20375;-69
2023/07/09 06:21:51;;;;;;;13.00;11.65;;;23.50;61.80;;;;;;5050575;28;20120;-69
2023/07/09 06:24:17;;;;;;;13.48;12.07;;;23.70;61.30;;;;;;5033872;28;20084;-69
2023/07/09 06:26:43;;;;;;;12.05;10.73;;;23.90;60.40;;;;;;5050894;28;20040;-69
2023/07/09 06:29:09;;;;;;;13.32;11.60;;;24.20;60.10;;;;;;5050685;28;20119;-69
2023/07/09 06:31:36;;;;;;;14.13;11.55;;;24.30;59.40;;;;;;5050987;28;20049;-69
2023/07/09 06:34:01;;;;;;;12.73;11.30;;;24.40;59.30;;;;;;5036284;28;20041;-68
2023/07/09 06:36:27;;;;;;;12.10;10.40;;;24.40;59.00;;;;;;5055216;28;20056;-68
2023/07/09 06:38:53;;;;;;;12.07;10.80;;;24.50;59.50;;;;;;5054519;28;20063;-68
2023/07/09 06:41:18;;;;;;;12.13;10.18;;;24.60;59.50;;;;;;5054435;28;20083;-68
2023/07/09 06:43:45;;;;;;;13.30;10.07;;;24.80;59.60;;;;;;5054597;28;20091;-68
2023/07/09 06:46:13;;;;;;;13.18;11.43;;;25.00;59.50;;;;;;5054388;28;20067;-69
2023/07/09 06:48:39;;;;;;;11.38;9.65;;;25.20;59.00;;;;;;5054296;28;20033;-69
2023/07/09 06:51:04;;;;;;;14.82;9.80;;;25.50;58.80;;;;;;5054556;28;20040;-69
2023/07/09 06:53:30;;;;;;;10.50;9.27;;;25.70;58.30;;;;;;5054157;28;20075;-67
2023/07/09 06:55:58;;;;;;;12.10;10.35;;;26.10;57.90;;;;;;5054090;28;20045;-67
2023/07/09 06:58:27;;;;;;;12.45;10.13;;;26.40;57.40;;;;;;5054226;28;20041;-67
2023/07/09 07:00:54;;;;;;;13.88;10.90;;;26.70;57.00;;;;;;5029992;28;20047;-67
2023/07/09 07:03:23;;;;;;;14.38;10.27;;;26.90;56.20;;;;;;5055300;28;20040;-67
2023/07/09 07:05:50;;;;;;;10.93;9.82;;;27.20;55.70;;;;;;5053908;28;20140;-67
2023/07/09 07:08:17;;;;;;;12.95;9.98;;;27.50;55.20;;;;;;5053845;28;20045;-67
2023/07/09 07:10:46;;;;;;;11.55;10.32;;;27.80;55.00;;;;;;5036069;28;20072;-67
2023/07/09 07:13:12;;;;;;;13.20;10.02;;;28.10;54.40;;;;;;5053950;28;20049;-66
2023/07/09 07:15:38;;;;;;;11.65;8.80;;;28.30;54.10;;;;;;5053372;28;20052;-67
2023/07/09 07:18:05;;;;;;;12.60;8.90;;;28.50;53.40;;;;;;5053868;28;20033;-67
2023/07/09 07:20:31;;;;;;;11.85;9.57;;;28.80;53.00;;;;;;5056373;28;20049;-68
2023/07/09 07:22:57;;;;;;;12.57;10.18;;;28.90;52.80;;;;;;5048988;28;20609;-68
2023/07/09 07:25:23;;;;;;;11.15;9.00;;;29.10;53.00;;;;;;5057008;28;20135;-68
2023/07/09 07:27:49;;;;;;;9.23;7.70;;;29.30;52.70;;;;;;5040134;28;20129;-68
2023/07/09 07:30:15;;;;;;;11.45;9.63;;;29.40;52.00;;;;;;5056979;28;20098;-68
2023/07/09 07:32:46;;;;;;;13.40;9.45;;;29.50;51.30;;;;;;5056526;28;20043;-68
2023/07/09 07:35:13;;;;;;;10.00;8.77;;;29.60;51.00;;;;;;5056826;28;20049;-68
2023/07/09 07:37:40;;;;;;;11.77;9.35;;;29.70;50.80;;;;;;5057014;28;20041;-68
2023/07/09 07:40:06;;;;;;;9.85;8.75;;;29.80;50.80;;;;;;5056759;28;20090;-65
2023/07/09 07:42:32;;;;;;;10.13;8.25;;;29.90;50.20;;;;;;5056354;28;20044;-67
2023/07/09 07:44:58;;;;;;;10.85;7.93;;;30.00;50.10;;;;;;5072000;28;20053;-67
2023/07/09 07:47:25;;;;;;;10.13;8.55;;;30.20;50.60;;;;;;5056708;28;20075;-68
2023/07/09 07:49:51;;;;;;;10.30;8.70;;;30.40;49.60;;;;;;5040351;28;20056;-68
2023/07/09 07:52:16;;;;;;;10.15;9.02;;;30.60;49.00;;;;;;5056455;28;20118;-68
2023/07/09 07:54:42;;;;;;;9.43;8.38;;;30.70;48.90;;;;;;5056154;28;20072;-68
2023/07/09 07:57:09;;;;;;;10.90;8.57;;;30.80;48.30;;;;;;5039930;28;20036;-68
2023/07/09 07:59:35;;;;;;;10.23;8.85;;;30.90;48.50;;;;;;5056381;28;20048;-68
2023/07/09 08:02:02;;;;;;;12.13;9.25;;;31.00;48.10;;;;;;5039856;28;20197;-67
2023/07/09 08:04:28;;;;;;;10.52;8.70;;;31.00;47.90;;;;;;5056135;28;20044;-68
2023/07/09 08:06:54;;;;;;;12.20;9.05;;;31.10;48.00;;;;;;5056037;28;20051;-68
2023/07/09 08:09:20;;;;;;;10.20;8.05;;;31.20;47.50;;;;;;5056088;28;20040;-70
2023/07/09 08:11:46;;;;;;;10.82;7.93;;;31.30;47.50;;;;;;5055645;28;20036;-70
2023/07/09 08:14:12;;;;;;;13.70;8.68;;;31.40;47.30;;;;;;5031820;28;20044;-70
2023/07/09 08:16:38;;;;;;;11.65;8.65;;;31.50;47.20;;;;;;5056256;28;20041;-73
2023/07/09 08:19:05;;;;;;;9.55;7.82;;;31.60;47.30;;;;;;5039297;28;20040;-70
2023/07/09 08:21:30;;;;;;;12.10;8.70;;;31.80;47.20;;;;;;5035970;28;20569;-70
2023/07/09 08:23:56;;;;;;;10.88;7.80;;;31.90;46.50;;;;;;5052700;28;20056;-70
2023/07/09 08:26:24;;;;;;;9.88;7.40;;;32.10;46.70;;;;;;5052854;28;20072;-70
2023/07/09 08:28:50;;;;;;;8.77;7.35;;;32.20;46.80;;;;;;5053213;28;20064;-70
2023/07/09 08:31:16;;;;;;;9.52;8.38;;;32.40;46.90;;;;;;5052612;28;20079;-70
2023/07/09 08:33:42;;;;;;;10.45;8.40;;;32.50;46.00;;;;;;5052870;28;20033;-68
2023/07/09 08:36:08;;;;;;;11.57;8.60;;;32.70;46.00;;;;;;5052569;28;20114;-68
2023/07/09 08:38:34;;;;;;;10.18;8.82;;;32.80;46.10;;;;;;5052743;28;20055;-68
2023/07/09 08:41:06;;;;;;;15.20;8.70;;;32.90;45.90;;;;;;5053952;28;20033;-68
2023/07/09 08:43:59;;;;;;;8.80;7.90;;;33.10;46.10;;;;;;5052509;28;20052;-68
2023/07/09 08:46:27;;;;;;;12.27;9.00;;;33.20;46.10;;;;;;5051864;28;20033;-68
2023/07/09 08:48:56;;;;;;;9.82;8.30;;;33.30;45.10;;;;;;5051998;28;20103;-68
2023/07/09 08:51:25;;;;;;;10.18;7.68;;;33.50;45.20;;;;;;5052579;28;20044;-67
2023/07/09 08:53:57;;;;;;;9.85;8.85;;;33.60;44.70;;;;;;5028120;28;20076;-67
2023/07/09 08:56:24;;;;;;;10.23;9.13;;;33.70;44.50;;;;;;5051576;28;20120;-68
2023/07/09 08:58:52;;;;;;;10.27;9.00;;;33.80;44.30;;;;;;5044156;28;20037;-68
2023/07/09 09:01:28;;;;;;;10.70;8.77;;;33.90;44.00;;;;;;5031303;28;20041;-68
2023/07/09 09:04:19;;;;;;;13.60;9.13;;;34.00;43.90;;;;;;5051795;28;20028;-69
2023/07/09 09:06:51;;;;;;;13.00;10.50;;;34.10;43.90;;;;;;5052087;28;20426;-68
2023/07/09 09:09:30;;;;;;;11.95;9.82;;;34.10;42.80;;;;;;5051221;28;20102;-69
2023/07/09 09:12:08;;;;;;;12.50;8.48;;;34.10;42.20;;;;;;5040884;28;20041;-66
2023/07/09 09:14:41;;;;;;;11.40;9.00;;;34.00;43.00;;;;;;5047399;28;21555;-68
2023/07/09 09:17:14;;;;;;;13.07;10.18;;;34.00;43.40;;;;;;5051388;28;20048;-69
2023/07/09 09:19:46;;;;;;;;;;;34.10;43.10;;;;;;5051978;28;20080;-69
2023/07/09 09:22:16;;;;;;;10.15;8.45;;;34.10;43.50;;;;;;5046416;28;19982;-68
2023/07/09 09:25:20;;;;;;;10.70;9.02;;;34.10;42.70;;;;;;5067850;28;20047;-69
2023/07/09 09:27:45;;;;;;;14.45;8.95;;;34.30;42.80;;;;;;5051235;28;20048;-66
2023/07/09 09:30:14;;;;;;;11.45;9.15;;;34.30;42.80;;;;;;5034805;28;20123;-67
2023/07/09 09:32:44;;;;;;;11.05;8.63;;;34.40;42.40;;;;;;5050947;28;20044;-67
2023/07/09 09:35:15;;;;;;;10.55;8.77;;;34.40;42.40;;;;;;5051378;28;20504;-66
2023/07/09 09:37:43;;;;;;;12.77;10.20;;;34.50;41.80;;;;;;5051273;28;20045;-67
2023/07/09 09:40:10;;;;;;;11.35;9.25;;;34.50;41.30;;;;;;5051093;28;20033;-67
2023/07/09 09:42:35;;;;;;;11.30;9.63;;;34.30;41.60;;;;;;5051001;28;20080;-67
2023/07/09 09:45:02;;;;;;;10.13;8.02;;;34.20;40.90;;;;;;5050887;28;20068;-66
2023/07/09 09:47:28;;;;;;;11.50;7.43;;;34.10;41.40;;;;;;5034992;28;20403;-67
2023/07/09 09:49:54;;;;;;;10.40;8.45;;;34.10;41.80;;;;;;5051091;28;20631;-67
2023/07/09 09:52:25;;;;;;;11.82;8.80;;;34.20;41.30;;;;;;5051387;28;20045;-67
2023/07/09 09:55:01;;;;;;;9.85;7.93;;;34.20;40.70;;;;;;5051001;28;20049;-67
2023/07/09 09:57:27;;;;;;;10.93;8.20;;;34.10;41.30;;;;;;5050893;28;20124;-67
2023/07/09 09:59:58;;;;;;;8.82;7.93;;;34.10;41.70;;;;;;5051240;28;20076;-67
2023/07/09 10:02:25;;;;;;;12.63;8.35;;;34.20;41.70;;;;;;5052633;28;20049;-67
2023/07/09 10:04:51;;;;;;;10.15;8.10;;;34.20;41.10;;;;;;5051016;28;20076;-67
2023/07/09 10:07:42;;;;;;;9.65;8.48;;;34.10;41.20;;;;;;5050427;28;20103;-67
2023/07/09 10:10:20;;;;;;;9.15;7.65;;;34.20;41.90;;;;;;5054457;28;20053;-67
2023/07/09 10:13:11;;;;;;;11.90;8.95;;;34.20;41.40;;;;;;5055049;28;20091;-67
2023/07/09 10:15:51;;;;;;;10.60;8.45;;;34.10;40.60;;;;;;5054377;28;20110;-67
2023/07/09 10:18:48;;;;;;;8.38;7.43;;;34.00;41.10;;;;;;5038271;28;20048;-67
2023/07/09 10:21:21;;;;;;;11.48;8.52;;;34.00;41.60;;;;;;5054661;28;20056;-67
2023/07/09 10:24:07;;;;;;;8.90;7.47;;;34.00;41.50;;;;;;5054785;28;20511;-67
2023/07/09 10:26:46;;;;;;;9.68;8.27;;;34.00;42.00;;;;;;5049572;28;20396;-67
2023/07/09 10:29:43;;;;;;;10.65;8.25;;;34.10;42.00;;;;;;5034974;28;20087;-67
2023/07/09 10:32:33;;;;;;;10.25;6.90;;;34.10;41.90;;;;;;5053969;28;20043;-67
2023/07/09 10:35:07;;;;;;;12.32;7.97;;;34.20;42.30;;;;;;5037752;28;20041;-67
2023/07/09 10:37:50;;;;;;;11.88;7.68;;;34.20;42.30;;;;;;5054747;28;20044;-68
2023/07/09 10:40:19;;;;;;;;;;;34.30;42.30;;;;;;5055094;28;20041;-68
2023/07/09 10:42:48;;;;;;;8.48;6.93;;;34.40;42.80;;;;;;5054824;28;19923;-68
2023/07/09 10:45:28;;;;;;;9.82;8.05;;;34.60;42.20;;;;;;5054312;28;20051;-68
2023/07/09 10:48:01;;;;;;;8.70;7.60;;;34.60;41.20;;;;;;5054454;28;20101;-68
2023/07/09 10:50:44;;;;;;;9.60;7.55;;;34.80;41.20;;;;;;5053731;28;20044;-68
2023/07/09 10:53:42;;;;;;;9.45;6.93;;;34.80;42.20;;;;;;5054249;28;20052;-68
2023/07/09 10:56:16;;;;;;;8.45;7.10;;;34.70;41.90;;;;;;5049033;28;20082;-71
2023/07/09 10:58:51;;;;;;;9.70;7.55;;;34.70;42.80;;;;;;5054389;28;20039;-71
2023/07/09 11:01:24;;;;;;;9.98;8.02;;;34.80;42.40;;;;;;5053737;28;20041;-71
2023/07/09 11:03:54;;;;;;;8.52;7.20;;;34.70;42.10;;;;;;5054133;28;20041;-72
2023/07/09 11:06:26;;;;;;;11.35;7.40;;;34.70;42.30;;;;;;5054191;28;20124;-67
2023/07/09 11:08:55;;;;;;;10.52;6.60;;;34.70;42.50;;;;;;5054057;28;20033;-70
2023/07/09 11:11:55;;;;;;;9.38;7.28;;;34.70;42.90;;;;;;5054106;28;20096;-68
2023/07/09 11:14:32;;;;;;;7.63;6.70;;;34.80;42.30;;;;;;4994623;28;20060;-68
2023/07/09 11:16:59;;;;;;;10.07;7.50;;;34.70;42.60;;;;;;5053703;28;20037;-68
2023/07/09 11:19:25;;;;;;;9.68;7.60;;;34.70;42.80;;;;;;5051937;28;20041;-67
2023/07/09 11:22:00;;;;;;;7.47;6.60;;;34.80;42.40;;;;;;5053738;28;20076;-71
2023/07/09 11:25:07;;;;;;;12.40;7.72;;;34.90;42.90;;;;;;5053444;28;20095;-71
2023/07/09 11:27:33;;;;;;;7.25;6.22;;;34.90;42.60;;;;;;5041418;28;20410;-71
2023/07/09 11:30:02;;;;;;;8.52;6.60;;;34.90;42.40;;;;;;5054097;28;20392;-69
2023/07/09 11:32:29;;;;;;;8.00;5.82;;;35.00;42.80;;;;;;5053620;28;20041;-71
2023/07/09 11:35:09;;;;;;;7.68;5.53;;;35.00;41.70;;;;;;5036772;28;20052;-70
2023/07/09 11:37:45;;;;;;;9.00;6.32;;;34.90;41.00;;;;;;5029269;28;20083;-70
2023/07/09 11:40:13;;;;;;;7.00;4.82;;;34.70;40.80;;;;;;5053088;28;20112;-70
2023/07/09 11:42:59;;;;;;;7.60;5.63;;;34.60;40.80;;;;;;5053552;28;20048;-70
2023/07/09 11:45:31;;;;;;;6.90;5.22;;;34.60;40.00;;;;;;5054451;28;20041;-70
2023/07/09 11:48:28;;;;;;;8.82;5.25;;;34.50;40.30;;;;;;5053130;28;20045;-70
2023/07/09 11:50:56;;;;;;;8.57;4.70;;;34.60;41.00;;;;;;5052926;28;20064;-70
2023/07/09 11:53:46;;;;;;;6.35;4.57;;;34.60;40.40;;;;;;5052335;28;21582;-70
2023/07/09 11:56:12;;;;;;;9.75;5.30;;;34.70;41.20;;;;;;5052656;28;20055;-70
2023/07/09 11:59:06;;;;;;;5.53;4.80;;;34.80;39.70;;;;;;5045310;28;20488;-70
2023/07/09 12:01:42;;;;;;;7.07;5.20;;;34.90;39.20;;;;;;5052349;28;20037;-70
2023/07/09 12:04:16;;;;;;;6.43;4.43;;;34.90;39.60;;;;;;5053098;28;20066;-70
2023/07/09 12:06:44;;;;;;;6.03;4.72;;;34.90;40.10;;;;;;5052801;28;20032;-70
2023/07/09 12:09:20;;;;;;;9.57;5.00;;;34.90;40.20;;;;;;5052695;28;20080;-74
2023/07/09 12:11:50;;;;;;;6.85;5.00;;;35.00;40.00;;;;;;5053092;28;20086;-75
2023/07/09 12:14:22;;;;;;;8.27;4.25;;;35.10;39.40;;;;;;5052862;28;20124;-75
2023/07/09 12:16:52;;;;;;;7.60;4.50;;;35.10;39.10;;;;;;5051163;28;20098;-75
2023/07/09 12:19:21;;;;;;;8.25;4.65;;;35.10;39.30;;;;;;5047654;28;20037;-74
2023/07/09 12:21:57;;;;;;;6.47;5.07;;;35.20;40.10;;;;;;5051331;28;20049;-74
2023/07/09 12:24:25;;;;;;;8.82;5.38;;;35.20;40.00;;;;;;5035370;28;20052;-74
2023/07/09 12:27:01;;;;;;;5.63;4.85;;;35.30;40.10;;;;;;5048647;28;20361;-75
2023/07/09 12:29:34;;;;;;;7.07;5.03;;;35.40;40.30;;;;;;5052141;28;20045;-75
2023/07/09 12:32:03;;;;;;;;;;;35.40;40.00;;;;;;5052206;28;20400;-74
2023/07/09 12:34:31;;;;;;;6.95;5.63;;;35.40;40.10;;;;;;5052717;28;19963;-74
2023/07/09 12:36:58;;;;;;;7.22;5.18;;;35.30;39.50;;;;;;5052561;28;20028;-74
2023/07/09 12:39:29;;;;;;;9.50;5.35;;;35.20;40.10;;;;;;5051059;28;20072;-74
2023/07/09 12:41:56;;;;;;;7.40;5.45;;;35.10;40.40;;;;;;5047449;28;20484;-74
2023/07/09 12:44:24;;;;;;;7.25;5.32;;;35.00;40.80;;;;;;5048705;28;20044;-73
2023/07/09 12:46:52;;;;;;;7.35;5.35;;;35.00;39.70;;;;;;5047566;28;20534;-74
2023/07/09 12:49:37;;;;;;;6.88;5.05;;;34.90;39.70;;;;;;5047578;28;20072;-74